Time;durP1;ratioP1;P1;durP2;ratioP2;P2;SDS_P1;SDS_P2;PMS_P1;PMS_P2;Temp;Humidity;BMP_temperature;BMP_pressure;BME280_temperature;BME280_humidity;BME280_pressure;Samples;Min_cycle;Max_cycle;Signal;HPM_P1;HPM_P2
2022/04/20 00:02:04;;;;;;;66.02;37.60;;;;;;;0.90;67.36;96927.12;1721928;83;26037;-71
2022/04/20 00:04:31;;;;;;;72.22;40.98;;;;;;;0.86;67.34;96923.94;1721924;83;25806;-75
2022/04/20 00:06:57;;;;;;;71.57;40.12;;;;;;;0.80;67.34;96921.95;1721735;83;25757;-72
2022/04/20 00:09:24;;;;;;;72.15;39.13;;;;;;;0.74;67.40;96921.25;1722065;83;26129;-72
2022/04/20 00:11:50;;;;;;;75.62;43.08;;;;;;;0.63;67.36;96923.72;1722045;83;27454;-71
2022/04/20 00:14:17;;;;;;;68.70;39.92;;;;;;;0.57;67.55;96923.55;1721950;83;25655;-72
2022/04/20 00:16:43;;;;;;;73.22;39.18;;;;;;;0.55;67.68;96927.69;1721877;83;25773;-73
2022/04/20 00:19:10;;;;;;;70.87;39.13;;;;;;;0.52;67.73;96924.51;1721835;83;26678;-72
2022/04/20 00:21:37;;;;;;;71.85;40.10;;;;;;;0.51;67.83;96922.84;1721865;82;25851;-72
2022/04/20 00:24:04;;;;;;;70.40;40.03;;;;;;;0.50;67.89;96916.70;1721932;83;27359;-72
2022/04/20 00:26:33;;;;;;;70.30;38.53;;;;;;;0.52;67.93;96916.55;1721773;83;25492;-73
2022/04/20 00:28:59;;;;;;;67.72;39.05;;;;;;;0.54;68.01;96920.70;1721691;82;25676;-74
2022/04/20 00:31:25;;;;;;;69.70;38.28;;;;;;;0.55;68.11;96913.58;1721784;83;26337;-72
2022/04/20 00:33:52;;;;;;;73.83;39.42;;;;;;;0.55;68.17;96920.22;1712746;83;25758;-72
2022/04/20 00:36:19;;;;;;;75.17;39.53;;;;;;;0.57;68.21;96920.89;1707342;83;27530;-72
2022/04/20 00:38:46;;;;;;;74.17;39.08;;;;;;;0.58;68.28;96917.24;1707347;82;25701;-72
2022/04/20 00:41:12;;;;;;;81.28;38.55;;;;;;;0.57;68.29;96919.56;1707564;84;25662;-72
2022/04/20 00:43:41;;;;;;;79.62;40.48;;;;;;;0.55;68.32;96925.03;1707465;84;25846;-72
2022/04/20 00:46:08;;;;;;;78.62;39.10;;;;;;;0.48;68.33;96924.52;1707442;84;25747;-75
2022/04/20 00:48:38;;;;;;;75.95;37.70;;;;;;;0.47;68.46;96926.34;1707450;82;27399;-72
2022/04/20 00:51:04;;;;;;;71.75;37.38;;;;;;;0.48;68.49;96924.52;1707662;84;25462;-71
2022/04/20 00:53:31;;;;;;;68.07;34.88;;;;;;;0.46;68.49;96929.98;1707522;82;25769;-71
2022/04/20 00:55:57;;;;;;;71.62;38.23;;;;;;;0.46;68.57;96933.13;1707860;84;25820;-72
2022/04/20 00:58:24;;;;;;;70.32;37.75;;;;;;;0.47;68.59;96932.14;1707723;84;25698;-75
2022/04/20 01:00:51;;;;;;;68.42;38.23;;;;;;;0.44;68.61;96933.78;1707690;84;27374;-73
2022/04/20 01:03:17;;;;;;;66.15;34.98;;;;;;;0.38;68.60;96935.23;1707611;82;25949;-72
2022/04/20 01:05:45;;;;;;;62.75;34.40;;;;;;;0.38;68.64;96938.39;1707732;84;25631;-72
2022/04/20 01:08:11;;;;;;;60.17;32.88;;;;;;;0.40;68.69;96943.05;1707609;84;25683;-72
2022/04/20 01:10:38;;;;;;;57.50;32.25;;;;;;;0.42;68.69;96949.03;1707742;84;25465;-75
2022/04/20 01:13:05;;;;;;;61.02;34.58;;;;;;;0.44;68.70;96949.72;1707632;84;27363;-72
2022/04/20 01:15:33;;;;;;;54.53;31.07;;;;;;;0.41;68.73;96948.70;1707609;84;25516;-72
2022/04/20 01:17:59;;;;;;;58.60;32.45;;;;;;;0.35;68.65;96940.39;1707782;84;25782;-70
2022/04/20 01:20:26;;;;;;;54.18;31.65;;;;;;;0.35;68.71;96949.69;1707639;84;25807;-72
2022/04/20 01:22:52;;;;;;;55.12;32.38;;;;;;;0.35;68.72;96936.41;1707863;84;25719;-71
2022/04/20 01:25:19;;;;;;;55.15;31.42;;;;;;;0.35;68.75;96935.09;1707764;84;27502;-73
2022/04/20 01:27:45;;;;;;;61.40;33.60;;;;;;;0.37;68.76;96940.21;1707500;84;25982;-72
2022/04/20 01:30:12;;;;;;;55.88;32.55;;;;;;;0.35;68.79;96943.55;1707655;84;25769;-72
2022/04/20 01:32:38;;;;;;;53.10;31.40;;;;;;;0.35;68.83;96939.07;1707379;84;25769;-72
2022/04/20 01:35:06;;;;;;;56.60;31.68;;;;;;;0.38;68.89;96934.41;1707445;82;25697;-72
2022/04/20 01:37:33;;;;;;;57.13;33.10;;;;;;;0.39;68.93;96940.05;1707675;82;27504;-72
2022/04/20 01:40:00;;;;;;;54.77;31.02;;;;;;;0.37;68.99;96932.25;1707725;84;25690;-72
2022/04/20 01:42:26;;;;;;;58.33;31.82;;;;;;;0.34;68.97;96933.42;1707691;84;25794;-72
2022/04/20 01:44:53;;;;;;;53.15;31.50;;;;;;;0.35;68.96;96928.94;1707583;84;26468;-72
2022/04/20 01:47:26;;;;;;;59.60;33.83;;;;;;;0.33;68.99;96922.46;1707628;84;25667;-71
2022/04/20 01:49:51;;;;;;;54.93;32.30;;;;;;;0.34;69.05;96924.13;1703839;84;28114;-72
2022/04/20 01:52:17;;;;;;;53.28;33.50;;;;;;;0.35;69.10;96924.47;1707510;84;25947;-74
2022/04/20 01:54:44;;;;;;;54.38;33.58;;;;;;;0.36;69.19;96922.64;1707625;84;25730;-73
2022/04/20 01:57:10;;;;;;;52.45;31.60;;;;;;;0.36;69.25;96923.97;1707706;84;26347;-73
2022/04/20 01:59:37;;;;;;;58.15;34.60;;;;;;;0.35;69.24;96927.62;1707634;84;25708;-72
2022/04/20 02:04:49;;;;;;;59.30;34.43;;;;;;;0.33;69.27;96926.44;1707291;82;25761;-72
2022/04/20 02:07:15;;;;;;;77.95;43.35;;;;;;;0.34;69.33;96925.45;1707780;84;25820;-72
2022/04/20 02:09:42;;;;;;;76.92;42.73;;;;;;;0.34;69.32;96928.11;1707455;84;26507;-75
2022/04/20 02:12:09;;;;;;;73.92;39.25;;;;;;;0.35;69.34;96916.50;1707537;84;25825;-71
2022/04/20 02:14:35;;;;;;;65.80;35.55;;;;;;;0.36;69.31;96915.48;1707641;82;27349;-72
2022/04/20 02:17:02;;;;;;;66.25;34.78;;;;;;;0.36;69.31;96907.52;1707723;84;25718;-72
2022/04/20 02:19:28;;;;;;;60.38;34.45;;;;;;;0.38;69.34;96910.51;1707664;83;25882;-72
2022/04/20 02:21:55;;;;;;;57.03;33.15;;;;;;;0.36;69.40;96906.72;1707714;84;26192;-71
2022/04/20 02:24:24;;;;;;;61.35;33.70;;;;;;;0.35;69.34;96907.20;1707554;84;25782;-72
2022/04/20 02:26:51;;;;;;;55.52;31.17;;;;;;;0.35;69.38;96902.39;1707686;82;27490;-72
2022/04/20 02:29:18;;;;;;;55.58;31.90;;;;;;;0.33;69.38;96898.56;1707597;84;25757;-72
2022/04/20 02:31:44;;;;;;;54.20;31.45;;;;;;;0.33;69.31;96899.06;1707603;84;25662;-73
2022/04/20 02:34:11;;;;;;;53.42;31.52;;;;;;;0.29;69.26;96893.23;1710228;82;26396;-74
2022/04/20 02:36:37;;;;;;;59.30;32.58;;;;;;;0.25;69.28;96905.15;1714238;83;25804;-73
2022/04/20 02:39:05;;;;;;;51.35;30.72;;;;;;;0.21;69.27;96896.36;1714160;83;27061;-73
2022/04/20 02:41:36;;;;;;;54.55;32.08;;;;;;;0.18;69.22;96899.32;1714131;83;25744;-72
2022/04/20 02:44:05;;;;;;;59.48;33.02;;;;;;;0.12;69.31;96903.42;1714293;83;25698;-72
2022/04/20 02:46:32;;;;;;;65.97;36.23;;;;;;;0.09;69.30;96898.46;1699081;83;25745;-72
2022/04/20 02:48:59;;;;;;;61.48;35.52;;;;;;;0.05;69.31;96894.45;1699252;84;25735;-72
2022/04/20 02:51:26;;;;;;;62.43;34.98;;;;;;;-0.01;69.28;96899.91;1699244;83;27506;-73
2022/04/20 02:53:52;;;;;;;57.23;34.48;;;;;;;-0.05;69.41;96899.05;1699171;84;25815;-74
2022/04/20 02:56:19;;;;;;;60.73;35.23;;;;;;;-0.08;69.47;96896.70;1699210;84;25846;-72
2022/04/20 02:58:50;;;;;;;57.62;33.28;;;;;;;-0.11;69.46;96900.98;1699030;84;26793;-71
2022/04/20 03:01:16;;;;;;;61.68;35.25;;;;;;;-0.13;69.52;96908.30;1699230;84;25776;-72
2022/04/20 03:03:43;;;;;;;69.92;36.77;;;;;;;-0.15;69.53;96904.96;1699185;83;27366;-71
2022/04/20 03:06:11;;;;;;;85.95;41.63;;;;;;;-0.16;69.61;96917.89;1699023;84;25917;-72
2022/04/20 03:08:37;;;;;;;106.83;46.92;;;;;;;-0.19;69.64;96915.05;1699216;84;25340;-72
2022/04/20 03:11:04;;;;;;;104.92;47.88;;;;;;;-0.20;69.71;96917.36;1699196;84;26680;-72
2022/04/20 03:13:30;;;;;;;110.55;47.93;;;;;;;-0.18;69.75;96913.23;1699285;83;25810;-75
2022/04/20 03:15:57;;;;;;;99.97;47.08;;;;;;;-0.16;69.80;96912.58;1699236;84;27378;-71
2022/04/20 03:18:23;;;;;;;102.53;48.25;;;;;;;-0.16;69.80;96915.23;1698985;84;25840;-74
2022/04/20 03:20:51;;;;;;;97.80;45.90;;;;;;;-0.15;69.81;96916.90;1699554;84;25795;-74
2022/04/20 03:23:17;;;;;;;89.13;41.30;;;;;;;-0.16;69.86;96913.41;1699064;84;25770;-72
2022/04/20 03:25:44;;;;;;;79.77;41.15;;;;;;;-0.15;69.95;96918.23;1699350;84;25723;-71
2022/04/20 03:28:11;;;;;;;62.93;35.43;;;;;;;-0.15;70.01;96916.90;1699225;84;27441;-70
2022/04/20 03:30:39;;;;;;;72.30;37.30;;;;;;;-0.12;70.05;96916.59;1699115;83;25787;-72
2022/04/20 03:33:08;;;;;;;74.67;39.50;;;;;;;-0.11;70.12;96915.58;1698893;84;25743;-71
2022/04/20 03:35:36;;;;;;;71.12;39.83;;;;;;;-0.10;70.15;96909.28;1657868;85;25788;-71
2022/04/20 03:38:03;;;;;;;77.42;40.55;;;;;;;-0.12;70.19;96914.74;1627682;88;25847;-72
2022/04/20 03:40:29;;;;;;;77.95;41.83;;;;;;;-0.12;70.16;96909.96;1629056;88;27586;-72
2022/04/20 03:42:56;;;;;;;76.45;40.43;;;;;;;-0.12;70.17;96906.78;1627718;88;25503;-72
2022/04/20 03:45:23;;;;;;;87.72;43.45;;;;;;;-0.11;70.21;96906.30;1629058;87;25904;-72
2022/04/20 03:47:49;;;;;;;87.75;43.55;;;;;;;-0.11;70.24;96903.64;1627529;88;25847;-73
2022/04/20 03:50:16;;;;;;;83.85;42.43;;;;;;;-0.13;70.33;96899.02;1640287;87;25738;-71
2022/04/20 03:52:43;;;;;;;77.42;40.28;;;;;;;-0.12;70.34;96898.83;1675973;84;28139;-74
2022/04/20 03:55:10;;;;;;;74.22;39.75;;;;;;;-0.12;70.41;96898.83;1655792;86;25880;-72
2022/04/20 03:57:36;;;;;;;72.10;40.05;;;;;;;-0.12;70.56;96898.02;1655828;86;25794;-72
2022/04/20 04:00:05;;;;;;;79.70;41.25;;;;;;;-0.15;70.58;96902.31;1675862;85;26327;-72
2022/04/20 04:02:32;;;;;;;86.45;43.63;;;;;;;-0.14;70.73;96905.30;1685027;85;25528;-73
2022/04/20 04:04:58;;;;;;;86.35;44.27;;;;;;;-0.12;70.85;96906.78;1685052;85;27427;-72
2022/04/20 04:07:25;;;;;;;77.37;41.60;;;;;;;-0.06;70.97;96911.48;1684976;85;25537;-71
2022/04/20 04:09:52;;;;;;;82.37;42.85;;;;;;;-0.04;70.93;96912.16;1684725;84;25724;-74
2022/04/20 04:12:24;;;;;;;80.42;42.30;;;;;;;-0.02;70.97;96909.35;1684950;85;26699;-72
2022/04/20 04:14:51;;;;;;;64.77;37.63;;;;;;;-0.02;71.05;96910.68;1684960;85;25752;-72
2022/04/20 04:17:18;;;;;;;71.20;40.90;;;;;;;0.02;71.07;96922.63;1684884;85;28011;-70
2022/04/20 04:19:44;;;;;;;70.03;42.30;;;;;;;0.01;71.08;96919.63;1684852;85;25829;-72
2022/04/20 04:22:14;;;;;;;71.53;42.65;;;;;;;0.05;71.09;96922.31;1685060;85;25743;-72
2022/04/20 04:24:41;;;;;;;78.65;47.50;;;;;;;0.10;71.10;96924.02;1684897;85;25774;-71
2022/04/20 04:27:10;;;;;;;104.25;55.55;;;;;;;0.11;71.09;96920.86;1685074;85;25445;-72
2022/04/20 04:29:38;;;;;;;90.03;52.40;;;;;;;0.13;71.10;96923.67;1684904;85;27377;-75
2022/04/20 04:32:06;;;;;;;83.90;52.45;;;;;;;0.17;71.11;96927.69;1684928;85;25820;-72
2022/04/20 04:34:34;;;;;;;85.57;51.95;;;;;;;0.21;70.99;96929.05;1683699;85;26070;-72
2022/04/20 04:37:00;;;;;;;88.22;50.38;;;;;;;0.27;71.00;96935.52;1681838;85;25767;-74
2022/04/20 04:39:30;;;;;;;80.62;45.10;;;;;;;0.31;71.06;96935.06;1682000;85;25901;-74
2022/04/20 04:41:57;;;;;;;73.42;44.48;;;;;;;0.33;71.07;96929.09;1682036;85;28295;-72
2022/04/20 04:44:23;;;;;;;72.27;45.60;;;;;;;0.38;71.10;96937.06;1681896;85;25950;-72
2022/04/20 04:49:35;;;;;;;80.47;45.58;;;;;;;0.44;71.11;96927.98;1681759;85;25748;-72
2022/04/20 04:52:02;;;;;;;73.30;44.08;;;;;;;0.46;71.20;96930.48;1682086;85;25527;-70
2022/04/20 04:54:29;;;;;;;70.70;43.38;;;;;;;0.50;71.17;96930.47;1681957;85;27521;-72
2022/04/20 04:56:55;;;;;;;73.55;41.15;;;;;;;0.53;71.23;96930.99;1681696;85;25517;-74
2022/04/20 04:59:22;;;;;;;70.55;40.83;;;;;;;0.54;71.28;96928.67;1682006;85;25694;-72
2022/04/20 05:01:48;;;;;;;68.70;41.45;;;;;;;0.58;71.36;96929.20;1682020;85;25833;-71
2022/04/20 05:04:15;;;;;;;69.72;41.85;;;;;;;0.60;71.40;96928.55;1681953;85;26084;-71
2022/04/20 05:06:43;;;;;;;71.05;42.23;;;;;;;0.65;71.45;96931.53;1681755;85;28365;-72
2022/04/20 05:09:10;;;;;;;72.32;44.65;;;;;;;0.69;71.36;96924.91;1714077;83;25681;-72
2022/04/20 05:11:37;;;;;;;75.87;47.00;;;;;;;0.75;71.37;96922.92;1714140;83;25725;-72
2022/04/20 05:14:03;;;;;;;78.65;47.90;;;;;;;0.81;71.40;96924.11;1714127;83;25733;-74
2022/04/20 05:16:30;;;;;;;73.40;45.73;;;;;;;0.88;71.45;96927.77;1714069;83;25846;-72
2022/04/20 05:18:57;;;;;;;94.28;55.10;;;;;;;0.94;71.50;96920.00;1714184;83;28076;-72
2022/04/20 05:21:23;;;;;;;111.00;64.37;;;;;;;1.01;71.54;96914.34;1714072;83;25850;-74
2022/04/20 05:23:50;;;;;;;111.17;62.08;;;;;;;1.07;71.50;96919.02;1714253;83;25247;-73
2022/04/20 05:26:16;;;;;;;105.03;59.90;;;;;;;1.17;71.55;96914.87;1714078;83;26491;-72
2022/04/20 05:28:43;;;;;;;94.47;54.20;;;;;;;1.22;71.49;96914.36;1714186;83;25480;-71
2022/04/20 05:31:09;;;;;;;90.80;52.08;;;;;;;1.29;71.35;96915.38;1714288;83;27625;-75
2022/04/20 05:33:36;;;;;;;91.17;52.45;;;;;;;1.32;71.24;96916.39;1713964;83;25440;-72
2022/04/20 05:36:03;;;;;;;84.00;48.28;;;;;;;1.37;71.32;96912.72;1713752;83;25635;-73
2022/04/20 05:44:03;;;;;;;80.20;46.70;;;;;;;1.53;71.47;96907.91;1714241;83;27427;-72
2022/04/20 05:46:31;;;;;;;72.45;44.80;;;;;;;1.59;71.53;96910.70;1714124;83;25455;-72
2022/04/20 05:48:58;;;;;;;87.08;49.95;;;;;;;1.65;71.46;96904.73;1714416;83;25291;-71
2022/04/20 05:51:25;;;;;;;74.27;46.58;;;;;;;1.73;71.34;96906.55;1714400;83;25840;-72
2022/04/20 05:53:51;;;;;;;67.95;42.62;;;;;;;1.79;71.31;96901.39;1714301;83;25792;-72
2022/04/20 05:56:18;;;;;;;71.72;44.13;;;;;;;1.85;71.23;96893.72;1714570;83;27217;-73
2022/04/20 05:58:46;;;;;;;69.20;39.98;;;;;;;1.91;71.36;96896.55;1714024;83;25801;-72
2022/04/20 06:03:42;;;;;;;59.85;36.23;;;;;;;2.03;71.26;96905.83;1687492;84;26344;-73
2022/04/20 06:06:08;;;;;;;55.70;35.48;;;;;;;2.14;71.34;96903.30;1687466;85;25786;-73
2022/04/20 06:08:35;;;;;;;61.25;38.63;;;;;;;2.23;71.21;96898.28;1687695;85;27452;-73
2022/04/20 06:11:02;;;;;;;56.30;36.13;;;;;;;2.32;71.25;96890.58;1687403;85;25780;-74
2022/04/20 06:13:29;;;;;;;61.58;39.53;;;;;;;2.40;71.29;96892.40;1687292;84;25927;-73
2022/04/20 06:15:56;;;;;;;59.33;37.67;;;;;;;2.50;71.37;96893.02;1687452;85;26015;-74
2022/04/20 06:18:23;;;;;;;67.95;35.63;;;;;;;2.58;71.02;96886.31;1687421;85;25765;-72
2022/04/20 06:20:49;;;;;;;63.13;38.83;;;;;;;2.68;70.90;96888.25;1687588;85;27614;-72
2022/04/20 06:23:16;;;;;;;62.55;37.88;;;;;;;2.75;70.89;96882.56;1687316;85;25801;-73
2022/04/20 06:25:42;;;;;;;59.77;38.02;;;;;;;2.83;70.79;96879.02;1687590;85;25698;-72
2022/04/20 06:28:09;;;;;;;65.65;38.63;;;;;;;2.94;70.77;96875.94;1687498;85;26360;-75
2022/04/20 06:30:36;;;;;;;50.88;32.00;;;;;;;3.07;70.76;96873.52;1687381;85;25786;-75
2022/04/20 06:33:02;;;;;;;45.70;28.60;;;;;;;3.25;70.74;96870.57;1687486;85;27437;-75
2022/04/20 06:35:29;;;;;;;40.90;26.95;;;;;;;3.41;70.30;96875.75;1694217;84;25777;-75
2022/04/20 06:37:55;;;;;;;39.98;24.70;;;;;;;3.55;69.95;96869.63;1702219;84;25789;-73
2022/04/20 06:40:22;;;;;;;35.10;23.42;;;;;;;3.68;69.60;96861.01;1702587;83;25809;-71
2022/04/20 06:42:49;;;;;;;39.85;24.00;;;;;;;3.84;69.57;96858.19;1702409;84;25780;-73
2022/04/20 06:45:15;;;;;;;31.90;22.55;;;;;;;4.01;69.37;96857.49;1702597;84;27600;-73
2022/04/20 06:47:44;;;;;;;35.30;21.60;;;;;;;4.17;69.00;96853.31;1702186;84;25374;-73
2022/04/20 06:50:10;;;;;;;30.57;19.80;;;;;;;4.34;68.62;96851.29;1702590;84;25536;-72
2022/04/20 07:00:53;;;;;;;31.37;20.75;;;;;;;5.12;67.45;96829.63;1712952;83;25736;-75
2022/04/20 07:03:19;;;;;;;30.68;20.60;;;;;;;5.24;66.81;96820.91;1719625;83;25774;-72
2022/04/20 07:05:46;;;;;;;25.85;18.12;;;;;;;5.36;66.82;96830.07;1719464;83;26700;-74
2022/04/20 07:08:12;;;;;;;26.57;17.32;;;;;;;5.47;66.04;96827.89;1719595;83;25730;-74
2022/04/20 07:10:39;;;;;;;25.70;17.98;;;;;;;5.56;65.88;96826.20;1719671;83;27552;-75
2022/04/20 07:13:05;;;;;;;24.52;18.27;;;;;;;5.63;65.44;96823.09;1719434;83;25571;-72
2022/04/20 07:15:32;;;;;;;27.93;16.95;;;;;;;5.61;65.11;96817.61;1719650;83;25750;-73
2022/04/20 07:17:58;;;;;;;25.30;16.87;;;;;;;5.57;65.02;96816.33;1719631;83;25835;-73
2022/04/20 07:20:25;;;;;;;25.77;17.37;;;;;;;5.60;64.50;96819.97;1719214;83;25752;-73
2022/04/20 07:22:53;;;;;;;25.92;17.85;;;;;;;5.55;64.48;96826.43;1719553;83;28018;-72
2022/04/20 07:25:20;;;;;;;26.97;17.82;;;;;;;5.47;64.21;96817.18;1719621;83;25682;-72
2022/04/20 07:27:48;;;;;;;26.15;19.02;;;;;;;5.41;64.17;96818.29;1719476;83;25792;-73
2022/04/20 07:30:16;;;;;;;31.87;20.37;;;;;;;5.35;64.21;96827.08;1719388;83;25899;-73
2022/04/20 07:32:43;;;;;;;31.57;18.55;;;;;;;5.37;64.21;96819.69;1719249;83;25515;-74
2022/04/20 07:35:10;;;;;;;24.75;16.90;;;;;;;5.39;64.12;96820.33;1716471;83;28221;-74
2022/04/20 07:37:37;;;;;;;26.12;17.27;;;;;;;5.44;63.90;96815.71;1707038;84;25484;-73
2022/04/20 07:40:06;;;;;;;30.65;17.67;;;;;;;5.52;63.77;96814.25;1707441;84;25802;-74
2022/04/20 07:42:33;;;;;;;24.95;16.30;;;;;;;5.60;63.67;96810.09;1707293;84;25733;-72
2022/04/20 07:45:00;;;;;;;20.97;14.45;;;;;;;5.69;63.55;96814.27;1707390;84;25699;-75
2022/04/20 07:47:28;;;;;;;22.00;14.95;;;;;;;5.66;62.71;96809.83;1707454;84;28599;-73
2022/04/20 07:52:43;;;;;;;19.65;13.60;;;;;;;5.75;62.62;96809.99;1707184;84;25770;-73
2022/04/20 07:55:13;;;;;;;20.48;14.33;;;;;;;5.75;62.03;96808.66;1707343;84;25745;-73
2022/04/20 07:57:42;;;;;;;21.17;14.43;;;;;;;5.77;62.05;96801.26;1707410;84;25803;-73
2022/04/20 08:00:11;;;;;;;19.77;13.75;;;;;;;5.79;62.09;96804.57;1707357;83;27405;-74
2022/04/20 08:02:37;;;;;;;16.65;12.55;;;;;;;5.90;62.01;96809.41;1707212;84;25873;-76
2022/04/20 08:05:05;;;;;;;18.30;12.88;;;;;;;5.94;61.71;96802.61;1707300;84;25705;-73
2022/04/20 08:07:32;;;;;;;17.50;12.53;;;;;;;5.95;61.30;96806.95;1707349;84;25769;-75
2022/04/20 08:09:58;;;;;;;17.40;13.10;;;;;;;5.97;61.25;96800.89;1707388;84;25835;-73
2022/04/20 08:12:28;;;;;;;21.73;14.50;;;;;;;6.05;60.88;96807.42;1707454;83;27371;-72
2022/04/20 08:14:54;;;;;;;44.80;26.48;;;;;;;6.10;60.80;96804.98;1707118;84;25665;-73
2022/04/20 08:17:21;;;;;;;24.18;16.73;;;;;;;6.11;60.30;96806.64;1707538;84;25709;-71
2022/04/20 08:19:48;;;;;;;19.05;13.90;;;;;;;6.11;60.09;96803.97;1707329;84;25725;-73
2022/04/20 08:22:14;;;;;;;18.05;13.80;;;;;;;6.11;60.26;96809.33;1707614;84;26327;-72
2022/04/20 08:24:45;;;;;;;20.75;14.33;;;;;;;6.06;59.87;96811.75;1707296;84;28335;-73
2022/04/20 08:27:14;;;;;;;18.73;13.98;;;;;;;5.94;59.91;96807.97;1707223;84;25299;-72
2022/04/20 08:29:42;;;;;;;20.20;14.18;;;;;;;5.87;59.83;96807.09;1707281;84;25814;-74
2022/04/20 08:32:09;;;;;;;21.23;15.20;;;;;;;5.88;59.89;96805.23;1707255;84;25837;-73
2022/04/20 08:34:36;;;;;;;22.75;15.93;;;;;;;5.90;59.88;96806.73;1707072;84;25796;-72
2022/04/20 08:37:03;;;;;;;26.37;16.67;;;;;;;5.89;59.80;96811.77;1706722;83;27622;-73
2022/04/20 08:39:29;;;;;;;24.12;17.30;;;;;;;5.81;59.83;96810.53;1707301;84;25689;-74
2022/04/20 08:41:57;;;;;;;27.22;17.30;;;;;;;5.69;59.72;96804.06;1707188;84;25693;-74
2022/04/20 08:44:27;;;;;;;28.27;18.27;;;;;;;5.60;59.87;96803.91;1707335;84;25739;-74
2022/04/20 08:46:58;;;;;;;25.68;17.65;;;;;;;5.61;60.10;96798.86;1687284;85;26264;-73
2022/04/20 08:49:25;;;;;;;28.92;19.25;;;;;;;5.66;60.33;96804.48;1684476;85;27402;-74
2022/04/20 08:54:37;;;;;;;28.10;18.17;;;;;;;5.72;60.20;96806.36;1687128;85;25903;-73
2022/04/20 08:57:16;;;;;;;26.15;17.57;;;;;;;5.78;60.06;96809.09;1687456;85;26325;-74
2022/04/20 08:59:49;;;;;;;29.67;17.98;;;;;;;5.70;59.94;96803.88;1668720;84;26085;-73
2022/04/20 09:02:18;;;;;;;33.78;20.43;;;;;;;5.68;59.98;96805.08;1608929;87;27412;-73
2022/04/20 09:04:45;;;;;;;27.87;19.27;;;;;;;5.70;60.15;96796.34;1608880;87;25669;-73
2022/04/20 09:07:18;;;;;;;27.52;17.77;;;;;;;5.76;60.05;96802.28;1608703;87;25533;-73
2022/04/20 09:09:45;;;;;;;25.05;16.62;;;;;;;5.79;59.91;96794.69;1608955;87;26465;-73
2022/04/20 09:12:18;;;;;;;28.77;19.00;;;;;;;5.83;59.85;96800.45;1608954;87;25849;-73
2022/04/20 09:14:51;;;;;;;24.50;15.50;;;;;;;5.89;59.82;96809.61;1608795;87;28266;-73
2022/04/20 09:17:19;;;;;;;;;;;;;;;5.94;59.74;96805.30;1611332;87;25836;-73
2022/04/20 09:19:49;;;;;;;21.23;15.38;;;;;;;5.90;59.38;96810.75;1608926;87;26054;-72
2022/04/20 09:22:24;;;;;;;19.87;15.05;;;;;;;5.90;59.47;96806.73;1609072;87;26573;-73
2022/04/20 09:25:11;;;;;;;21.20;15.75;;;;;;;5.93;59.39;96809.00;1609099;87;25575;-73
2022/04/20 09:27:40;;;;;;;21.48;15.50;;;;;;;5.92;59.39;96805.17;1608623;87;27454;-72
2022/04/20 09:30:16;;;;;;;18.27;13.98;;;;;;;5.93;59.20;96799.62;1608956;87;25752;-73
2022/04/20 09:32:47;;;;;;;18.67;13.95;;;;;;;5.99;59.18;96800.70;1609057;87;25891;-72
2022/04/20 09:35:18;;;;;;;23.50;14.43;;;;;;;6.04;59.12;96799.06;1608997;89;25936;-73
2022/04/20 09:37:47;;;;;;;24.50;14.03;;;;;;;6.11;59.03;96793.25;1608794;89;25831;-72
2022/04/20 09:40:15;;;;;;;19.65;13.88;;;;;;;6.17;58.96;96799.65;1588001;89;28084;-74
2022/04/20 09:43:07;;;;;;;19.77;14.55;;;;;;;6.23;58.78;96805.57;1611841;86;26176;-72
2022/04/20 09:51:09;;;;;;;24.70;17.52;;;;;;;6.31;58.37;96800.55;1517385;94;25735;-73
2022/04/20 09:53:36;;;;;;;17.12;13.68;;;;;;;6.30;58.14;96792.19;1517656;93;27107;-73
2022/04/20 09:56:19;;;;;;;34.85;23.62;;;;;;;6.20;58.15;96783.19;1517507;94;25763;-74
2022/04/20 09:58:47;;;;;;;28.75;20.92;;;;;;;6.27;58.06;96801.98;1525288;93;25824;-72
2022/04/20 10:01:34;;;;;;;23.90;17.55;;;;;;;6.30;57.91;96796.20;1540236;93;25810;-75
2022/04/20 10:04:06;;;;;;;31.62;23.38;;;;;;;6.30;57.79;96796.20;1539987;93;25795;-73
2022/04/20 10:06:34;;;;;;;19.67;15.88;;;;;;;6.27;57.73;96794.78;1540123;93;27409;-73
2022/04/20 10:09:01;;;;;;;22.55;16.52;;;;;;;6.25;57.58;96791.47;1539926;93;25798;-73
2022/04/20 10:11:28;;;;;;;51.60;26.85;;;;;;;6.29;57.90;96786.52;1540063;93;26011;-75
2022/04/20 10:16:26;;;;;;;33.88;21.52;;;;;;;6.36;57.86;96791.41;1498469;95;25827;-72
2022/04/20 10:18:52;;;;;;;24.45;17.17;;;;;;;6.39;57.50;96793.70;1498361;95;28191;-73
2022/04/20 10:21:22;;;;;;;35.00;20.08;;;;;;;6.41;57.38;96788.42;1498362;94;26028;-74
2022/04/20 10:23:52;;;;;;;27.93;16.85;;;;;;;6.43;57.32;96789.05;1498332;95;26978;-73
2022/04/20 10:26:20;;;;;;;20.97;15.40;;;;;;;6.38;57.08;96784.83;1498103;94;26026;-72
2022/04/20 10:29:16;;;;;;;22.48;16.40;;;;;;;6.37;57.05;96784.51;1498440;94;25890;-73
2022/04/20 10:31:48;;;;;;;21.20;15.75;;;;;;;6.42;56.98;96781.20;1478264;95;28103;-74
2022/04/20 10:34:18;;;;;;;18.85;13.83;;;;;;;6.49;56.80;96782.08;1475267;97;25936;-74
2022/04/20 10:37:01;;;;;;;20.85;14.40;;;;;;;6.56;56.59;96787.45;1471459;96;25521;-73
2022/04/20 10:39:37;;;;;;;19.30;14.03;;;;;;;6.62;56.44;96784.81;1473617;97;25868;-73
2022/04/20 10:45:06;;;;;;;21.57;15.85;;;;;;;6.71;56.21;96780.91;1459494;97;27971;-73
2022/04/20 10:47:44;;;;;;;25.55;15.70;;;;;;;6.74;56.02;96775.66;1459381;98;25421;-73
2022/04/20 10:50:21;;;;;;;18.25;14.25;;;;;;;6.79;56.04;96774.52;1459271;98;25865;-73
2022/04/20 10:53:04;;;;;;;21.35;13.98;;;;;;;6.86;56.51;96778.89;1423300;99;26056;-72
2022/04/20 10:55:42;;;;;;;23.38;15.45;;;;;;;6.88;55.92;96775.46;1477715;94;25476;-73
2022/04/20 10:58:20;;;;;;;26.52;15.05;;;;;;;6.90;55.66;96778.45;1517286;94;27385;-73
2022/04/20 11:00:46;;;;;;;23.10;14.70;;;;;;;6.93;55.60;96772.69;1517059;94;25968;-73
2022/04/20 11:03:13;;;;;;;20.17;14.60;;;;;;;6.95;55.52;96778.69;1517077;94;25917;-72
2022/04/20 11:05:54;;;;;;;18.67;14.03;;;;;;;6.95;55.25;96776.00;1517218;94;25858;-73
2022/04/20 11:08:24;;;;;;;19.20;13.55;;;;;;;6.94;55.17;96773.01;1521358;93;26746;-73
2022/04/20 11:19:54;;;;;;;22.73;12.33;;;;;;;6.92;54.62;96762.98;1543947;92;25902;-72
2022/04/20 11:22:23;;;;;;;25.03;13.67;;;;;;;6.90;54.38;96769.06;1544297;92;25897;-72
2022/04/20 11:25:06;;;;;;;22.60;14.03;;;;;;;6.89;54.39;96764.22;1544361;92;28178;-72
2022/04/20 11:27:36;;;;;;;25.10;15.63;;;;;;;6.91;54.46;96758.65;1494716;95;25853;-72
2022/04/20 11:30:05;;;;;;;22.87;15.35;;;;;;;6.96;54.43;96760.22;1470406;96;25961;-72
2022/04/20 11:32:32;;;;;;;22.55;15.20;;;;;;;6.98;54.25;96754.97;1470461;96;25927;-75
2022/04/20 11:35:12;;;;;;;27.85;16.35;;;;;;;6.97;54.11;96749.80;1470351;96;25890;-74
2022/04/20 11:37:39;;;;;;;26.80;14.03;;;;;;;6.99;54.16;96751.77;1446294;96;28194;-74
2022/04/20 11:40:13;;;;;;;21.87;13.30;;;;;;;7.00;54.08;96741.34;1442950;97;25843;-73
2022/04/20 11:42:41;;;;;;;19.62;12.60;;;;;;;6.99;54.07;96743.20;1466535;96;25920;-73
2022/04/20 11:45:09;;;;;;;19.67;13.22;;;;;;;7.03;54.09;96742.26;1469591;97;26553;-73
2022/04/20 11:47:42;;;;;;;17.73;12.18;;;;;;;7.07;54.12;96744.85;1469487;97;25806;-73
2022/04/20 11:50:09;;;;;;;20.82;11.97;;;;;;;7.08;53.86;96729.89;1497014;93;27137;-74
2022/04/20 11:52:36;;;;;;;24.72;15.90;;;;;;;7.09;53.70;96732.06;1505955;93;25823;-73
2022/04/20 11:55:07;;;;;;;17.70;12.20;;;;;;;7.13;53.71;96730.08;1505957;93;25446;-72
2022/04/20 11:57:34;;;;;;;25.25;14.47;;;;;;;7.16;53.52;96726.99;1505973;93;26573;-73
2022/04/20 12:00:00;;;;;;;26.85;15.63;;;;;;;7.21;53.47;96721.02;1505926;93;25409;-73
2022/04/20 12:02:28;;;;;;;20.90;13.43;;;;;;;7.24;53.42;96724.09;1506004;93;27573;-74
2022/04/20 12:05:08;;;;;;;21.60;12.98;;;;;;;7.25;53.20;96719.55;1528750;91;26486;-73
2022/04/20 12:07:36;;;;;;;25.12;15.60;;;;;;;7.27;53.18;96724.20;1500060;94;25872;-74
2022/04/20 12:10:04;;;;;;;25.55;15.95;;;;;;;7.29;53.14;96722.14;1499980;94;25886;-73
2022/04/20 12:12:33;;;;;;;24.20;13.80;;;;;;;7.33;53.11;96719.88;1499881;94;25797;-72
2022/04/20 12:15:08;;;;;;;20.32;12.98;;;;;;;7.36;53.03;96713.58;1481656;94;27404;-74
2022/04/20 12:17:36;;;;;;;21.10;15.40;;;;;;;7.41;53.03;96717.80;1486778;94;43118;-72